sensor_id;sensor_type;location;lat;lon;timestamp;P1;durP1;ratioP1;P2;durP2;ratioP2
37047;SDS011;23227;48.780;9.210;2023-08-24T00:03:47;5.15;;;3.05;;
37047;SDS011;23227;48.780;9.210;2023-08-24T00:06:50;5.53;;;2.75;;
37047;SDS011;23227;48.780;9.210;2023-08-24T00:09:53;8.45;;;3.00;;
37047;SDS011;23227;48.780;9.210;2023-08-24T00:15:58;4.65;;;2.97;;
37047;SDS011;23227;48.780;9.210;2023-08-24T00:19:02;9.02;;;2.97;;
37047;SDS011;23227;48.780;9.210;2023-08-24T00:22:04;7.85;;;3.25;;
37047;SDS011;23227;48.780;9.210;2023-08-24T00:28:10;4.25;;;3.22;;
37047;SDS011;23227;48.780;9.210;2023-08-24T00:34:17;6.85;;;3.08;;
37047;SDS011;23227;48.780;9.210;2023-08-24T00:37:20;5.55;;;2.90;;
37047;SDS011;23227;48.780;9.210;2023-08-24T00:43:26;6.70;;;2.88;;
37047;SDS011;23227;48.780;9.210;2023-08-24T00:46:29;5.03;;;2.70;;
37047;SDS011;23227;48.780;9.210;2023-08-24T00:52:36;3.83;;;2.85;;
37047;SDS011;23227;48.780;9.210;2023-08-24T00:55:40;4.30;;;2.85;;
37047;SDS011;23227;48.780;9.210;2023-08-24T01:01:45;4.45;;;2.95;;
37047;SDS011;23227;48.780;9.210;2023-08-24T01:04:50;4.35;;;2.60;;
37047;SDS011;23227;48.780;9.210;2023-08-24T01:07:53;5.38;;;2.80;;
37047;SDS011;23227;48.780;9.210;2023-08-24T01:10:57;5.63;;;2.72;;
37047;SDS011;23227;48.780;9.210;2023-08-24T01:14:04;4.25;;;2.92;;
37047;SDS011;23227;48.780;9.210;2023-08-24T01:17:10;7.45;;;2.85;;
37047;SDS011;23227;48.780;9.210;2023-08-24T01:20:17;4.30;;;2.90;;
37047;SDS011;23227;48.780;9.210;2023-08-24T01:23:27;5.45;;;2.83;;
37047;SDS011;23227;48.780;9.210;2023-08-24T01:26:36;4.30;;;3.22;;
37047;SDS011;23227;48.780;9.210;2023-08-24T01:29:39;3.88;;;2.90;;
37047;SDS011;23227;48.780;9.210;2023-08-24T01:32:42;6.00;;;3.13;;
37047;SDS011;23227;48.780;9.210;2023-08-24T01:35:45;4.18;;;2.60;;
37047;SDS011;23227;48.780;9.210;2023-08-24T01:38:50;6.35;;;2.90;;
37047;SDS011;23227;48.780;9.210;2023-08-24T01:41:58;4.50;;;3.05;;
37047;SDS011;23227;48.780;9.210;2023-08-24T01:45:04;4.20;;;2.50;;
37047;SDS011;23227;48.780;9.210;2023-08-24T01:48:09;4.50;;;2.80;;
37047;SDS011;23227;48.780;9.210;2023-08-24T01:51:12;4.18;;;2.55;;
37047;SDS011;23227;48.780;9.210;2023-08-24T01:54:16;2.97;;;2.67;;
37047;SDS011;23227;48.780;9.210;2023-08-24T02:00:22;4.72;;;2.90;;
37047;SDS011;23227;48.780;9.210;2023-08-24T02:03:25;4.38;;;2.85;;
37047;SDS011;23227;48.780;9.210;2023-08-24T02:06:28;2.90;;;2.45;;
37047;SDS011;23227;48.780;9.210;2023-08-24T02:12:34;7.72;;;3.20;;
37047;SDS011;23227;48.780;9.210;2023-08-24T02:15:37;5.10;;;2.70;;
37047;SDS011;23227;48.780;9.210;2023-08-24T02:18:40;6.30;;;3.17;;
37047;SDS011;23227;48.780;9.210;2023-08-24T02:21:43;4.88;;;3.20;;
37047;SDS011;23227;48.780;9.210;2023-08-24T02:27:49;5.03;;;2.50;;
37047;SDS011;23227;48.780;9.210;2023-08-24T02:30:53;3.92;;;2.50;;
37047;SDS011;23227;48.780;9.210;2023-08-24T02:36:57;4.00;;;2.53;;
37047;SDS011;23227;48.780;9.210;2023-08-24T02:40:01;5.88;;;3.25;;
37047;SDS011;23227;48.780;9.210;2023-08-24T02:43:05;4.18;;;2.65;;
37047;SDS011;23227;48.780;9.210;2023-08-24T02:46:08;6.47;;;3.22;;
37047;SDS011;23227;48.780;9.210;2023-08-24T02:49:10;2.90;;;2.55;;
37047;SDS011;23227;48.780;9.210;2023-08-24T02:55:15;3.55;;;2.65;;
37047;SDS011;23227;48.780;9.210;2023-08-24T03:01:22;3.25;;;2.60;;
37047;SDS011;23227;48.780;9.210;2023-08-24T03:04:24;3.20;;;2.78;;
37047;SDS011;23227;48.780;9.210;2023-08-24T03:07:27;5.03;;;3.15;;
37047;SDS011;23227;48.780;9.210;2023-08-24T03:10:30;3.13;;;2.83;;
37047;SDS011;23227;48.780;9.210;2023-08-24T03:16:38;4.00;;;2.67;;
37047;SDS011;23227;48.780;9.210;2023-08-24T03:19:40;4.25;;;2.92;;
37047;SDS011;23227;48.780;9.210;2023-08-24T03:22:43;4.45;;;2.75;;
37047;SDS011;23227;48.780;9.210;2023-08-24T03:28:49;4.53;;;2.78;;
37047;SDS011;23227;48.780;9.210;2023-08-24T03:31:52;5.45;;;2.90;;
37047;SDS011;23227;48.780;9.210;2023-08-24T03:34:57;5.75;;;2.90;;
37047;SDS011;23227;48.780;9.210;2023-08-24T03:38:00;5.20;;;3.10;;
37047;SDS011;23227;48.780;9.210;2023-08-24T03:41:04;4.20;;;2.80;;
37047;SDS011;23227;48.780;9.210;2023-08-24T03:44:08;6.10;;;3.30;;
37047;SDS011;23227;48.780;9.210;2023-08-24T03:47:12;6.25;;;3.42;;
37047;SDS011;23227;48.780;9.210;2023-08-24T03:50:14;3.78;;;3.05;;
37047;SDS011;23227;48.780;9.210;2023-08-24T03:53:17;6.78;;;3.55;;
37047;SDS011;23227;48.780;9.210;2023-08-24T03:56:20;5.20;;;3.38;;
37047;SDS011;23227;48.780;9.210;2023-08-24T04:02:26;6.57;;;3.22;;
37047;SDS011;23227;48.780;9.210;2023-08-24T04:05:29;5.28;;;3.72;;
37047;SDS011;23227;48.780;9.210;2023-08-24T04:08:32;6.03;;;3.25;;
37047;SDS011;23227;48.780;9.210;2023-08-24T04:14:38;7.05;;;3.13;;
37047;SDS011;23227;48.780;9.210;2023-08-24T04:17:40;5.95;;;3.22;;
37047;SDS011;23227;48.780;9.210;2023-08-24T04:20:46;6.60;;;3.88;;
37047;SDS011;23227;48.780;9.210;2023-08-24T04:26:50;6.15;;;3.75;;
37047;SDS011;23227;48.780;9.210;2023-08-24T04:29:54;9.27;;;4.07;;
37047;SDS011;23227;48.780;9.210;2023-08-24T04:32:57;11.23;;;4.35;;
37047;SDS011;23227;48.780;9.210;2023-08-24T04:36:01;10.38;;;3.90;;
37047;SDS011;23227;48.780;9.210;2023-08-24T04:39:04;5.07;;;4.25;;
37047;SDS011;23227;48.780;9.210;2023-08-24T04:45:10;9.68;;;3.65;;
37047;SDS011;23227;48.780;9.210;2023-08-24T04:48:13;7.50;;;3.72;;
37047;SDS011;23227;48.780;9.210;2023-08-24T04:51:16;7.45;;;4.10;;
37047;SDS011;23227;48.780;9.210;2023-08-24T04:57:21;6.07;;;4.00;;
37047;SDS011;23227;48.780;9.210;2023-08-24T05:00:27;6.47;;;3.75;;
37047;SDS011;23227;48.780;9.210;2023-08-24T05:03:29;8.73;;;4.22;;
37047;SDS011;23227;48.780;9.210;2023-08-24T05:09:34;8.65;;;3.88;;
37047;SDS011;23227;48.780;9.210;2023-08-24T05:15:41;6.35;;;3.55;;
37047;SDS011;23227;48.780;9.210;2023-08-24T05:18:43;5.60;;;3.60;;
37047;SDS011;23227;48.780;9.210;2023-08-24T05:21:47;7.22;;;4.00;;
37047;SDS011;23227;48.780;9.210;2023-08-24T05:27:52;10.55;;;4.85;;
37047;SDS011;23227;48.780;9.210;2023-08-24T05:30:56;9.45;;;3.92;;
37047;SDS011;23227;48.780;9.210;2023-08-24T05:33:59;6.95;;;3.97;;
37047;SDS011;23227;48.780;9.210;2023-08-24T05:40:05;10.00;;;4.10;;
37047;SDS011;23227;48.780;9.210;2023-08-24T05:43:08;5.72;;;3.65;;
37047;SDS011;23227;48.780;9.210;2023-08-24T05:46:13;7.47;;;3.83;;
37047;SDS011;23227;48.780;9.210;2023-08-24T05:49:15;6.82;;;3.65;;
37047;SDS011;23227;48.780;9.210;2023-08-24T05:52:18;7.07;;;3.10;;
37047;SDS011;23227;48.780;9.210;2023-08-24T05:58:23;9.52;;;3.53;;
37047;SDS011;23227;48.780;9.210;2023-08-24T06:01:27;12.13;;;4.15;;
37047;SDS011;23227;48.780;9.210;2023-08-24T06:04:30;6.63;;;3.95;;
37047;SDS011;23227;48.780;9.210;2023-08-24T06:07:33;7.05;;;3.60;;
37047;SDS011;23227;48.780;9.210;2023-08-24T06:13:38;10.10;;;3.22;;
37047;SDS011;23227;48.780;9.210;2023-08-24T06:16:42;9.57;;;4.00;;
37047;SDS011;23227;48.780;9.210;2023-08-24T06:19:44;5.20;;;3.08;;
37047;SDS011;23227;48.780;9.210;2023-08-24T06:25:49;6.40;;;3.13;;
37047;SDS011;23227;48.780;9.210;2023-08-24T06:31:56;9.40;;;2.90;;
37047;SDS011;23227;48.780;9.210;2023-08-24T06:34:59;7.57;;;3.95;;
37047;SDS011;23227;48.780;9.210;2023-08-24T06:38:02;4.55;;;3.05;;
37047;SDS011;23227;48.780;9.210;2023-08-24T06:41:05;7.13;;;3.30;;
37047;SDS011;23227;48.780;9.210;2023-08-24T06:44:09;7.63;;;3.70;;
37047;SDS011;23227;48.780;9.210;2023-08-24T06:50:16;5.13;;;3.08;;
37047;SDS011;23227;48.780;9.210;2023-08-24T06:53:20;4.45;;;2.97;;
37047;SDS011;23227;48.780;9.210;2023-08-24T06:56:23;4.60;;;3.15;;
37047;SDS011;23227;48.780;9.210;2023-08-24T06:59:26;5.28;;;2.83;;
37047;SDS011;23227;48.780;9.210;2023-08-24T07:02:30;6.05;;;2.92;;
37047;SDS011;23227;48.780;9.210;2023-08-24T07:05:32;3.50;;;3.20;;
37047;SDS011;23227;48.780;9.210;2023-08-24T07:08:37;6.90;;;2.97;;
37047;SDS011;23227;48.780;9.210;2023-08-24T07:11:40;4.32;;;3.10;;
37047;SDS011;23227;48.780;9.210;2023-08-24T07:14:43;4.15;;;2.97;;
37047;SDS011;23227;48.780;9.210;2023-08-24T07:17:47;4.03;;;2.60;;
37047;SDS011;23227;48.780;9.210;2023-08-24T07:20:50;5.88;;;3.15;;
37047;SDS011;23227;48.780;9.210;2023-08-24T07:26:55;6.57;;;2.90;;
37047;SDS011;23227;48.780;9.210;2023-08-24T07:29:58;4.72;;;2.70;;
37047;SDS011;23227;48.780;9.210;2023-08-24T07:36:05;4.75;;;3.20;;
37047;SDS011;23227;48.780;9.210;2023-08-24T07:39:08;3.83;;;2.60;;
37047;SDS011;23227;48.780;9.210;2023-08-24T07:45:13;4.70;;;2.90;;
37047;SDS011;23227;48.780;9.210;2023-08-24T07:48:17;5.95;;;2.67;;
37047;SDS011;23227;48.780;9.210;2023-08-24T07:51:20;4.25;;;2.80;;
37047;SDS011;23227;48.780;9.210;2023-08-24T07:57:26;7.47;;;3.13;;
37047;SDS011;23227;48.780;9.210;2023-08-24T08:00:28;5.90;;;3.28;;
37047;SDS011;23227;48.780;9.210;2023-08-24T08:03:32;4.88;;;3.33;;
37047;SDS011;23227;48.780;9.210;2023-08-24T08:06:37;4.82;;;2.95;;
37047;SDS011;23227;48.780;9.210;2023-08-24T08:12:42;6.05;;;3.17;;
37047;SDS011;23227;48.780;9.210;2023-08-24T08:15:44;3.17;;;2.63;;
37047;SDS011;23227;48.780;9.210;2023-08-24T08:18:50;3.70;;;2.78;;
37047;SDS011;23227;48.780;9.210;2023-08-24T08:21:52;4.40;;;2.90;;
37047;SDS011;23227;48.780;9.210;2023-08-24T08:27:57;5.35;;;2.70;;
37047;SDS011;23227;48.780;9.210;2023-08-24T08:34:04;6.32;;;2.83;;
37047;SDS011;23227;48.780;9.210;2023-08-24T08:37:07;5.07;;;2.55;;
37047;SDS011;23227;48.780;9.210;2023-08-24T08:43:13;5.53;;;2.53;;
37047;SDS011;23227;48.780;9.210;2023-08-24T08:49:19;4.97;;;2.63;;
37047;SDS011;23227;48.780;9.210;2023-08-24T08:52:22;5.03;;;2.60;;
37047;SDS011;23227;48.780;9.210;2023-08-24T08:55:26;4.53;;;3.17;;
37047;SDS011;23227;48.780;9.210;2023-08-24T08:58:31;4.80;;;2.92;;
37047;SDS011;23227;48.780;9.210;2023-08-24T09:01:34;4.55;;;2.38;;
37047;SDS011;23227;48.780;9.210;2023-08-24T09:07:41;3.38;;;2.30;;
37047;SDS011;23227;48.780;9.210;2023-08-24T09:10:43;3.97;;;2.53;;
37047;SDS011;23227;48.780;9.210;2023-08-24T09:13:46;4.13;;;2.53;;
37047;SDS011;23227;48.780;9.210;2023-08-24T09:19:55;3.22;;;2.45;;
37047;SDS011;23227;48.780;9.210;2023-08-24T09:23:00;4.57;;;2.70;;
37047;SDS011;23227;48.780;9.210;2023-08-24T09:26:03;3.38;;;2.40;;
37047;SDS011;23227;48.780;9.210;2023-08-24T09:29:10;4.75;;;2.95;;
37047;SDS011;23227;48.780;9.210;2023-08-24T09:32:14;3.90;;;2.58;;
37047;SDS011;23227;48.780;9.210;2023-08-24T09:35:18;3.22;;;2.30;;
37047;SDS011;23227;48.780;9.210;2023-08-24T09:38:23;4.50;;;2.67;;
37047;SDS011;23227;48.780;9.210;2023-08-24T09:41:36;3.97;;;2.42;;
37047;SDS011;23227;48.780;9.210;2023-08-24T09:44:42;3.75;;;2.30;;
37047;SDS011;23227;48.780;9.210;2023-08-24T09:47:46;3.35;;;2.38;;
37047;SDS011;23227;48.780;9.210;2023-08-24T09:50:52;3.42;;;2.28;;
37047;SDS011;23227;48.780;9.210;2023-08-24T09:53:57;3.60;;;2.92;;
37047;SDS011;23227;48.780;9.210;2023-08-24T09:56:59;3.13;;;2.25;;
37047;SDS011;23227;48.780;9.210;2023-08-24T10:00:03;2.90;;;2.30;;
37047;SDS011;23227;48.780;9.210;2023-08-24T10:03:11;3.58;;;2.30;;
37047;SDS011;23227;48.780;9.210;2023-08-24T10:06:20;3.42;;;2.30;;
37047;SDS011;23227;48.780;9.210;2023-08-24T10:09:26;3.08;;;2.72;;
37047;SDS011;23227;48.780;9.210;2023-08-24T10:12:31;3.58;;;2.40;;
37047;SDS011;23227;48.780;9.210;2023-08-24T10:15:37;3.50;;;2.42;;
37047;SDS011;23227;48.780;9.210;2023-08-24T10:18:48;3.63;;;2.53;;
37047;SDS011;23227;48.780;9.210;2023-08-24T10:21:54;3.90;;;2.42;;
37047;SDS011;23227;48.780;9.210;2023-08-24T10:24:58;3.25;;;2.20;;
37047;SDS011;23227;48.780;9.210;2023-08-24T10:28:01;3.05;;;2.40;;
37047;SDS011;23227;48.780;9.210;2023-08-24T10:31:04;2.90;;;2.38;;
37047;SDS011;23227;48.780;9.210;2023-08-24T10:34:07;2.42;;;2.20;;
37047;SDS011;23227;48.780;9.210;2023-08-24T10:37:11;4.60;;;2.83;;
37047;SDS011;23227;48.780;9.210;2023-08-24T10:40:14;4.35;;;2.38;;
37047;SDS011;23227;48.780;9.210;2023-08-24T10:43:16;2.40;;;2.20;;
37047;SDS011;23227;48.780;9.210;2023-08-24T10:49:24;2.67;;;2.05;;
37047;SDS011;23227;48.780;9.210;2023-08-24T10:52:34;4.60;;;2.40;;
37047;SDS011;23227;48.780;9.210;2023-08-24T10:55:40;4.55;;;2.33;;
37047;SDS011;23227;48.780;9.210;2023-08-24T11:01:54;2.55;;;1.90;;
37047;SDS011;23227;48.780;9.210;2023-08-24T11:05:03;4.65;;;3.00;;
37047;SDS011;23227;48.780;9.210;2023-08-24T11:08:08;3.00;;;1.90;;
37047;SDS011;23227;48.780;9.210;2023-08-24T11:11:17;2.20;;;1.98;;
37047;SDS011;23227;48.780;9.210;2023-08-24T11:14:20;3.80;;;2.25;;
37047;SDS011;23227;48.780;9.210;2023-08-24T11:17:29;5.70;;;2.40;;
37047;SDS011;23227;48.780;9.210;2023-08-24T11:20:33;2.75;;;2.28;;
37047;SDS011;23227;48.780;9.210;2023-08-24T11:26:41;2.83;;;2.20;;
37047;SDS011;23227;48.780;9.210;2023-08-24T11:29:44;3.42;;;2.22;;
37047;SDS011;23227;48.780;9.210;2023-08-24T11:32:51;2.55;;;2.13;;
37047;SDS011;23227;48.780;9.210;2023-08-24T11:35:54;3.83;;;2.20;;
37047;SDS011;23227;48.780;9.210;2023-08-24T11:42:04;2.78;;;2.17;;
37047;SDS011;23227;48.780;9.210;2023-08-24T11:45:11;2.45;;;2.25;;
37047;SDS011;23227;48.780;9.210;2023-08-24T11:48:14;2.42;;;2.22;;
37047;SDS011;23227;48.780;9.210;2023-08-24T11:54:39;5.35;;;2.38;;
37047;SDS011;23227;48.780;9.210;2023-08-24T11:57:43;3.28;;;2.50;;
37047;SDS011;23227;48.780;9.210;2023-08-24T12:03:48;2.20;;;1.98;;
37047;SDS011;23227;48.780;9.210;2023-08-24T12:06:51;3.47;;;2.15;;
37047;SDS011;23227;48.780;9.210;2023-08-24T12:13:00;3.78;;;2.85;;
37047;SDS011;23227;48.780;9.210;2023-08-24T12:16:05;5.07;;;2.58;;
37047;SDS011;23227;48.780;9.210;2023-08-24T12:19:07;2.55;;;2.10;;
37047;SDS011;23227;48.780;9.210;2023-08-24T12:22:14;3.55;;;2.42;;
37047;SDS011;23227;48.780;9.210;2023-08-24T12:25:18;2.80;;;2.47;;
37047;SDS011;23227;48.780;9.210;2023-08-24T12:28:24;2.40;;;2.20;;
37047;SDS011;23227;48.780;9.210;2023-08-24T12:34:29;4.25;;;2.30;;
37047;SDS011;23227;48.780;9.210;2023-08-24T12:40:37;2.35;;;2.15;;
37047;SDS011;23227;48.780;9.210;2023-08-24T12:43:39;2.85;;;2.22;;
37047;SDS011;23227;48.780;9.210;2023-08-24T12:46:45;3.80;;;2.50;;
37047;SDS011;23227;48.780;9.210;2023-08-24T12:49:47;2.90;;;2.22;;
37047;SDS011;23227;48.780;9.210;2023-08-24T12:52:51;3.97;;;2.30;;
37047;SDS011;23227;48.780;9.210;2023-08-24T12:55:58;3.97;;;2.58;;
37047;SDS011;23227;48.780;9.210;2023-08-24T12:59:01;5.32;;;2.17;;
37047;SDS011;23227;48.780;9.210;2023-08-24T13:05:06;3.47;;;2.17;;
37047;SDS011;23227;48.780;9.210;2023-08-24T13:08:10;2.30;;;2.10;;
37047;SDS011;23227;48.780;9.210;2023-08-24T13:14:16;3.20;;;2.38;;
37047;SDS011;23227;48.780;9.210;2023-08-24T13:17:18;2.40;;;2.20;;
37047;SDS011;23227;48.780;9.210;2023-08-24T13:23:24;2.80;;;2.05;;
37047;SDS011;23227;48.780;9.210;2023-08-24T13:29:30;2.95;;;2.25;;
37047;SDS011;23227;48.780;9.210;2023-08-24T13:35:36;2.40;;;2.20;;
37047;SDS011;23227;48.780;9.210;2023-08-24T13:38:39;2.50;;;2.28;;
37047;SDS011;23227;48.780;9.210;2023-08-24T13:41:42;3.03;;;2.33;;
37047;SDS011;23227;48.780;9.210;2023-08-24T13:44:45;2.75;;;2.40;;
37047;SDS011;23227;48.780;9.210;2023-08-24T13:47:48;3.47;;;2.47;;
37047;SDS011;23227;48.780;9.210;2023-08-24T13:50:51;2.38;;;2.10;;
37047;SDS011;23227;48.780;9.210;2023-08-24T13:53:54;2.45;;;2.13;;
37047;SDS011;23227;48.780;9.210;2023-08-24T14:00:02;3.85;;;2.25;;
37047;SDS011;23227;48.780;9.210;2023-08-24T14:03:06;4.38;;;2.63;;
37047;SDS011;23227;48.780;9.210;2023-08-24T14:06:09;3.13;;;2.50;;
37047;SDS011;23227;48.780;9.210;2023-08-24T14:09:12;5.00;;;2.40;;
37047;SDS011;23227;48.780;9.210;2023-08-24T14:15:18;4.05;;;2.10;;
37047;SDS011;23227;48.780;9.210;2023-08-24T14:18:21;2.88;;;2.42;;
37047;SDS011;23227;48.780;9.210;2023-08-24T14:21:24;3.22;;;2.60;;
37047;SDS011;23227;48.780;9.210;2023-08-24T14:24:44;2.60;;;2.20;;
37047;SDS011;23227;48.780;9.210;2023-08-24T14:31:05;2.63;;;2.10;;
37047;SDS011;23227;48.780;9.210;2023-08-24T14:34:08;2.47;;;2.28;;
37047;SDS011;23227;48.780;9.210;2023-08-24T14:37:10;3.47;;;2.33;;
37047;SDS011;23227;48.780;9.210;2023-08-24T14:40:13;4.15;;;2.67;;
37047;SDS011;23227;48.780;9.210;2023-08-24T14:43:18;2.40;;;2.20;;
37047;SDS011;23227;48.780;9.210;2023-08-24T14:46:21;3.67;;;2.22;;
37047;SDS011;23227;48.780;9.210;2023-08-24T14:49:24;8.02;;;2.60;;
37047;SDS011;23227;48.780;9.210;2023-08-24T14:55:29;5.22;;;2.08;;
37047;SDS011;23227;48.780;9.210;2023-08-24T15:01:35;2.35;;;2.08;;
37047;SDS011;23227;48.780;9.210;2023-08-24T15:04:38;3.90;;;2.30;;
37047;SDS011;23227;48.780;9.210;2023-08-24T15:07:41;4.35;;;2.58;;
37047;SDS011;23227;48.780;9.210;2023-08-24T15:13:47;4.10;;;2.33;;
37047;SDS011;23227;48.780;9.210;2023-08-24T15:16:50;6.53;;;2.38;;
37047;SDS011;23227;48.780;9.210;2023-08-24T15:22:58;5.65;;;2.40;;
37047;SDS011;23227;48.780;9.210;2023-08-24T15:26:00;4.30;;;2.33;;
37047;SDS011;23227;48.780;9.210;2023-08-24T15:29:08;2.80;;;2.13;;
37047;SDS011;23227;48.780;9.210;2023-08-24T15:32:13;4.60;;;2.40;;
37047;SDS011;23227;48.780;9.210;2023-08-24T15:38:18;2.92;;;2.33;;
37047;SDS011;23227;48.780;9.210;2023-08-24T15:44:24;3.05;;;2.22;;
37047;SDS011;23227;48.780;9.210;2023-08-24T15:47:27;5.32;;;2.80;;
37047;SDS011;23227;48.780;9.210;2023-08-24T15:50:30;4.18;;;2.40;;
37047;SDS011;23227;48.780;9.210;2023-08-24T15:53:32;2.70;;;2.22;;
37047;SDS011;23227;48.780;9.210;2023-08-24T15:56:35;3.63;;;2.38;;
37047;SDS011;23227;48.780;9.210;2023-08-24T15:59:40;2.33;;;2.13;;
37047;SDS011;23227;48.780;9.210;2023-08-24T16:02:43;3.45;;;2.17;;
37047;SDS011;23227;48.780;9.210;2023-08-24T16:05:45;3.42;;;2.10;;
37047;SDS011;23227;48.780;9.210;2023-08-24T16:11:50;3.25;;;2.35;;
37047;SDS011;23227;48.780;9.210;2023-08-24T16:14:54;3.58;;;2.30;;
37047;SDS011;23227;48.780;9.210;2023-08-24T16:17:57;2.15;;;1.95;;
37047;SDS011;23227;48.780;9.210;2023-08-24T16:21:00;3.60;;;2.03;;
37047;SDS011;23227;48.780;9.210;2023-08-24T16:27:05;5.65;;;2.22;;
37047;SDS011;23227;48.780;9.210;2023-08-24T16:33:12;2.88;;;1.90;;
37047;SDS011;23227;48.780;9.210;2023-08-24T16:36:14;3.70;;;1.90;;
37047;SDS011;23227;48.780;9.210;2023-08-24T16:39:17;3.45;;;2.00;;
37047;SDS011;23227;48.780;9.210;2023-08-24T16:42:20;2.78;;;1.90;;
37047;SDS011;23227;48.780;9.210;2023-08-24T16:48:26;5.25;;;1.88;;
37047;SDS011;23227;48.780;9.210;2023-08-24T16:51:29;4.00;;;2.00;;
37047;SDS011;23227;48.780;9.210;2023-08-24T16:54:32;1.98;;;1.77;;
37047;SDS011;23227;48.780;9.210;2023-08-24T17:00:38;3.00;;;2.20;;
37047;SDS011;23227;48.780;9.210;2023-08-24T17:03:41;2.05;;;1.88;;
37047;SDS011;23227;48.780;9.210;2023-08-24T17:06:43;3.80;;;2.20;;
37047;SDS011;23227;48.780;9.210;2023-08-24T17:12:48;2.50;;;1.90;;
37047;SDS011;23227;48.780;9.210;2023-08-24T17:18:55;2.50;;;2.30;;
37047;SDS011;23227;48.780;9.210;2023-08-24T17:25:00;3.55;;;2.08;;
37047;SDS011;23227;48.780;9.210;2023-08-24T17:28:05;3.10;;;2.03;;
37047;SDS011;23227;48.780;9.210;2023-08-24T17:31:09;3.10;;;1.85;;
37047;SDS011;23227;48.780;9.210;2023-08-24T17:34:12;4.35;;;1.85;;
37047;SDS011;23227;48.780;9.210;2023-08-24T17:37:14;1.70;;;1.60;;
37047;SDS011;23227;48.780;9.210;2023-08-24T17:43:20;2.67;;;1.90;;
37047;SDS011;23227;48.780;9.210;2023-08-24T17:49:26;2.38;;;1.52;;
37047;SDS011;23227;48.780;9.210;2023-08-24T17:52:29;1.95;;;1.65;;
37047;SDS011;23227;48.780;9.210;2023-08-24T17:55:32;2.97;;;1.80;;
37047;SDS011;23227;48.780;9.210;2023-08-24T17:58:36;2.40;;;1.73;;
37047;SDS011;23227;48.780;9.210;2023-08-24T18:04:43;1.92;;;1.70;;
37047;SDS011;23227;48.780;9.210;2023-08-24T18:07:46;3.08;;;1.85;;
37047;SDS011;23227;48.780;9.210;2023-08-24T18:10:49;2.50;;;1.73;;
37047;SDS011;23227;48.780;9.210;2023-08-24T18:16:58;1.77;;;1.63;;
37047;SDS011;23227;48.780;9.210;2023-08-24T18:20:00;2.63;;;1.55;;
37047;SDS011;23227;48.780;9.210;2023-08-24T18:23:04;4.13;;;1.75;;
37047;SDS011;23227;48.780;9.210;2023-08-24T18:26:06;1.70;;;1.60;;
37047;SDS011;23227;48.780;9.210;2023-08-24T18:29:09;3.25;;;1.90;;
37047;SDS011;23227;48.780;9.210;2023-08-24T18:32:13;3.90;;;1.90;;
37047;SDS011;23227;48.780;9.210;2023-08-24T18:35:16;2.85;;;1.83;;
37047;SDS011;23227;48.780;9.210;2023-08-24T18:38:18;2.03;;;1.80;;
37047;SDS011;23227;48.780;9.210;2023-08-24T18:41:21;1.90;;;1.63;;
37047;SDS011;23227;48.780;9.210;2023-08-24T18:44:24;4.55;;;1.90;;
37047;SDS011;23227;48.780;9.210;2023-08-24T18:47:28;1.90;;;1.58;;
37047;SDS011;23227;48.780;9.210;2023-08-24T18:50:30;4.25;;;2.60;;
37047;SDS011;23227;48.780;9.210;2023-08-24T18:56:35;3.17;;;2.67;;
37047;SDS011;23227;48.780;9.210;2023-08-24T18:59:38;4.00;;;2.70;;
37047;SDS011;23227;48.780;9.210;2023-08-24T19:02:42;6.88;;;2.83;;
37047;SDS011;23227;48.780;9.210;2023-08-24T19:05:45;7.60;;;3.25;;
37047;SDS011;23227;48.780;9.210;2023-08-24T19:08:48;6.20;;;3.25;;
37047;SDS011;23227;48.780;9.210;2023-08-24T19:14:53;4.80;;;3.30;;
37047;SDS011;23227;48.780;9.210;2023-08-24T19:17:57;8.93;;;3.47;;
37047;SDS011;23227;48.780;9.210;2023-08-24T19:21:00;10.13;;;3.80;;
37047;SDS011;23227;48.780;9.210;2023-08-24T19:24:04;7.70;;;3.67;;
37047;SDS011;23227;48.780;9.210;2023-08-24T19:27:07;10.40;;;3.85;;
37047;SDS011;23227;48.780;9.210;2023-08-24T19:36:17;8.93;;;3.97;;
37047;SDS011;23227;48.780;9.210;2023-08-24T19:42:22;12.27;;;3.25;;
37047;SDS011;23227;48.780;9.210;2023-08-24T19:45:26;6.93;;;3.05;;
37047;SDS011;23227;48.780;9.210;2023-08-24T19:48:32;5.20;;;2.92;;
37047;SDS011;23227;48.780;9.210;2023-08-24T19:51:35;7.43;;;2.97;;
37047;SDS011;23227;48.780;9.210;2023-08-24T19:54:38;6.47;;;3.10;;
37047;SDS011;23227;48.780;9.210;2023-08-24T20:00:43;7.03;;;2.38;;
37047;SDS011;23227;48.780;9.210;2023-08-24T20:06:49;4.30;;;2.28;;
37047;SDS011;23227;48.780;9.210;2023-08-24T20:09:53;5.25;;;2.00;;
37047;SDS011;23227;48.780;9.210;2023-08-24T20:12:56;3.83;;;1.92;;
37047;SDS011;23227;48.780;9.210;2023-08-24T20:16:02;5.80;;;2.00;;
37047;SDS011;23227;48.780;9.210;2023-08-24T20:19:08;6.68;;;2.47;;
37047;SDS011;23227;48.780;9.210;2023-08-24T20:22:13;5.20;;;2.30;;
37047;SDS011;23227;48.780;9.210;2023-08-24T20:25:16;6.00;;;2.80;;
37047;SDS011;23227;48.780;9.210;2023-08-24T20:31:22;8.82;;;2.38;;
37047;SDS011;23227;48.780;9.210;2023-08-24T20:34:26;4.00;;;2.65;;
37047;SDS011;23227;48.780;9.210;2023-08-24T20:37:31;4.55;;;2.65;;
37047;SDS011;23227;48.780;9.210;2023-08-24T20:40:34;4.93;;;2.60;;
37047;SDS011;23227;48.780;9.210;2023-08-24T20:46:39;8.80;;;2.75;;
37047;SDS011;23227;48.780;9.210;2023-08-24T20:49:43;5.88;;;2.40;;
37047;SDS011;23227;48.780;9.210;2023-08-24T20:52:47;7.00;;;2.45;;
37047;SDS011;23227;48.780;9.210;2023-08-24T20:58:52;5.80;;;2.17;;
37047;SDS011;23227;48.780;9.210;2023-08-24T21:01:54;5.00;;;2.10;;
37047;SDS011;23227;48.780;9.210;2023-08-24T21:04:59;3.95;;;1.83;;
37047;SDS011;23227;48.780;9.210;2023-08-24T21:08:05;4.20;;;1.90;;
37047;SDS011;23227;48.780;9.210;2023-08-24T21:11:08;5.90;;;1.90;;
37047;SDS011;23227;48.780;9.210;2023-08-24T21:14:10;3.90;;;2.08;;
37047;SDS011;23227;48.780;9.210;2023-08-24T21:17:13;4.13;;;1.55;;
37047;SDS011;23227;48.780;9.210;2023-08-24T21:23:20;4.68;;;1.58;;
37047;SDS011;23227;48.780;9.210;2023-08-24T21:29:27;6.88;;;1.98;;
37047;SDS011;23227;48.780;9.210;2023-08-24T21:32:30;5.60;;;2.13;;
37047;SDS011;23227;48.780;9.210;2023-08-24T21:35:36;5.75;;;1.75;;
37047;SDS011;23227;48.780;9.210;2023-08-24T21:38:39;7.53;;;1.88;;
37047;SDS011;23227;48.780;9.210;2023-08-24T21:41:42;6.18;;;1.83;;
37047;SDS011;23227;48.780;9.210;2023-08-24T21:47:47;2.15;;;1.23;;
37047;SDS011;23227;48.780;9.210;2023-08-24T21:50:51;3.50;;;1.38;;
37047;SDS011;23227;48.780;9.210;2023-08-24T21:53:54;6.35;;;1.60;;
37047;SDS011;23227;48.780;9.210;2023-08-24T21:59:59;4.22;;;1.65;;
37047;SDS011;23227;48.780;9.210;2023-08-24T22:03:02;4.03;;;1.48;;
37047;SDS011;23227;48.780;9.210;2023-08-24T22:06:06;3.53;;;1.25;;
37047;SDS011;23227;48.780;9.210;2023-08-24T22:09:09;2.70;;;1.23;;
37047;SDS011;23227;48.780;9.210;2023-08-24T22:12:12;5.93;;;1.38;;
37047;SDS011;23227;48.780;9.210;2023-08-24T22:18:17;3.60;;;1.17;;
37047;SDS011;23227;48.780;9.210;2023-08-24T22:21:21;4.55;;;1.55;;
37047;SDS011;23227;48.780;9.210;2023-08-24T22:24:24;3.35;;;1.48;;
37047;SDS011;23227;48.780;9.210;2023-08-24T22:30:31;3.17;;;1.45;;
37047;SDS011;23227;48.780;9.210;2023-08-24T22:33:33;1.63;;;1.17;;
37047;SDS011;23227;48.780;9.210;2023-08-24T22:36:40;4.05;;;1.38;;
37047;SDS011;23227;48.780;9.210;2023-08-24T22:39:42;1.92;;;0.90;;
37047;SDS011;23227;48.780;9.210;2023-08-24T22:42:45;2.10;;;1.05;;
37047;SDS011;23227;48.780;9.210;2023-08-24T22:48:50;2.60;;;1.33;;
37047;SDS011;23227;48.780;9.210;2023-08-24T22:51:54;1.27;;;1.00;;
37047;SDS011;23227;48.780;9.210;2023-08-24T22:54:57;3.17;;;1.20;;
37047;SDS011;23227;48.780;9.210;2023-08-24T22:58:00;4.80;;;1.23;;
37047;SDS011;23227;48.780;9.210;2023-08-24T23:04:14;3.10;;;1.23;;
37047;SDS011;23227;48.780;9.210;2023-08-24T23:10:21;1.20;;;0.93;;
37047;SDS011;23227;48.780;9.210;2023-08-24T23:13:24;4.07;;;1.42;;